Latest Coastal Weather Observations for Ngayawili (Elcho Island)

IDD60701

Issued at 1:21 pm CST Sunday 25 January 2015 (issued every 10 minutes, with the page automatically refreshed every 10 minutes)

About coastal observations | Map of coastal stations | Coastal observations for NT | Marine services | Other Formats
Station Details ID: 014517 Name: NGAYAWILI Lat: -12.00 Lon: 135.57 Height: 8.1 m
Data from the previous 72 hours. | See also: Recent months at Ngayawili (Elcho Island)
Date/Time
CST
Temp

°C
Wind Pressure Rain
since 9am
mm
Weather Cloud Vis
km
Sea
Height
m
Swell
Dir
 
Speed
knots
Gust
knots
hPa Trend Height
m
Period
s
Dir
25/01:00pm 30.7 WNW 16 19 - - 0.0 - - - - - - -
25/12:30pm 30.6 WNW 16 18 - - 0.0 - - - - - - -
25/12:00pm 30.3 WNW 18 22 - - 0.0 - - - - - - -
25/11:30am 30.1 WNW 18 21 - - 0.0 - - - - - - -
25/11:00am 29.9 NW 19 22 - - 0.0 - - - - - - -
25/10:30am 29.5 WNW 19 22 - - 0.0 - - - - - - -
25/10:00am 29.6 WNW 18 20 - - 0.0 - - - - - - -
25/09:30am 30.3 WNW 17 19 - - 0.0 - - - - - - -
25/09:00am 29.5 WNW 16 19 - - 0.0 - - - - - - -
25/08:30am 29.0 WNW 17 21 - - 0.0 - - - - - - -
25/08:00am 28.6 WNW 18 21 - - 0.0 - - - - - - -
25/07:30am 28.4 WNW 18 21 - - 0.0 - - - - - - -
25/07:00am 28.1 WNW 19 22 - - 0.0 - - - - - - -
25/06:30am 28.0 WNW 17 21 - - 0.0 - - - - - - -
25/06:00am 27.5 WNW 15 17 - - 0.0 - - - - - - -
25/05:30am 27.4 WNW 15 19 - - 0.0 - - - - - - -
25/05:00am 27.0 WNW 13 16 - - 0.0 - - - - - - -
25/04:30am 26.7 WNW 13 16 - - 0.0 - - - - - - -
25/04:00am 26.4 WSW 11 14 - - 0.0 - - - - - - -
25/03:30am 25.9 WSW 10 12 - - 0.0 - - - - - - -
25/03:00am 25.9 SW 13 15 - - 0.0 - - - - - - -
25/02:30am 26.4 SW 13 16 - - 0.0 - - - - - - -
25/02:00am 26.8 WSW 10 12 - - 0.0 - - - - - - -
25/01:30am 26.8 WSW 9 11 - - 0.0 - - - - - - -
25/01:00am 27.5 W 11 14 - - 0.0 - - - - - - -
25/12:30am 27.4 W 11 14 - - 0.0 - - - - - - -
25/12:00am 28.1 W 12 14 - - 0.0 - - - - - - -
 
Date/Time
CST
Temp

°C
Wind Pressure Rain
since 9am
mm
Weather Cloud Vis
km
Sea
Height
m
Swell
Dir
 
Speed
knots
Gust
knots
hPa Trend Height
m
Period
s
Dir
24/11:30pm 28.5 WNW 17 19 - - 0.0 - - - - - - -
24/11:00pm 28.6 WNW 16 19 - - 0.0 - - - - - - -
24/10:30pm 28.5 W 15 18 - - 0.0 - - - - - - -
24/10:00pm 28.6 WNW 17 19 - - 0.0 - - - - - - -
24/09:30pm 28.7 W 15 18 - - 0.0 - - - - - - -
24/09:00pm 28.7 WNW 16 19 - - 0.0 - - - - - - -
24/08:30pm 28.6 NW 17 21 - - 0.0 - - - - - - -
24/08:00pm 28.8 NW 17 21 - - 0.0 - - - - - - -
24/07:30pm 28.7 NW 17 19 - - 0.0 - - - - - - -
24/07:00pm 28.9 NW 17 21 - - 0.0 - - - - - - -
24/06:30pm 28.9 NW 18 22 - - 0.0 - - - - - - -
24/06:00pm 28.9 NW 21 24 - - 0.0 - - - - - - -
24/05:30pm 29.2 NW 19 23 - - 0.0 - - - - - - -
24/05:00pm 29.5 NW 17 21 - - 0.0 - - - - - - -
24/04:30pm 29.4 NW 17 20 - - 0.0 - - - - - - -
24/04:00pm 29.2 NW 17 19 - - 0.0 - - - - - - -
24/03:30pm 29.5 NW 16 18 - - 0.0 - - - - - - -
24/03:00pm 29.6 NW 16 19 - - 0.0 - - - - - - -
24/02:30pm 29.6 WNW 17 19 - - 0.0 - - - - - - -
24/02:00pm 29.9 WNW 16 18 - - 0.0 - - - - - - -
24/01:30pm 30.2 WNW 16 18 - - 0.0 - - - - - - -
24/01:00pm 29.8 WNW 16 18 - - 0.0 - - - - - - -
24/12:30pm 29.8 WNW 18 22 - - 0.0 - - - - - - -
24/12:00pm 29.8 WNW 20 24 - - 0.0 - - - - - - -
24/11:30am 29.4 WNW 19 23 - - 0.0 - - - - - - -
24/11:00am 29.0 W 16 23 - - 0.0 - - - - - - -
24/10:59am 29.0 W 15 23 - - 0.0 - - - - - - -
24/10:30am 29.7 W 11 13 - - 0.0 - - - - - - -
24/10:00am 29.7 WSW 11 14 - - 0.0 - - - - - - -
24/09:30am 29.2 WSW 12 14 - - 0.0 - - - - - - -
24/09:00am 29.0 WSW 11 13 - - 27.6 Recent precip. - - - - - -
24/08:30am 29.1 WSW 11 13 - - 27.6 - - - - - - -
24/08:00am 28.5 WSW 12 14 - - 27.4 - - - - - - -
24/07:30am 28.1 WSW 14 17 - - 27.4 - - - - - - -
24/07:00am 28.2 WNW 12 14 - - 27.4 - - - - - - -
24/06:30am 28.2 NW 13 15 - - 27.4 - - - - - - -
24/06:00am 28.2 NW 16 18 - - 27.4 - - - - - - -
24/05:30am 28.5 WNW 16 19 - - 27.4 - - - - - - -
24/05:00am 28.2 WNW 17 21 - - 27.4 - - - - - - -
24/04:30am 28.1 WNW 19 23 - - 27.4 - - - - - - -
24/04:00am 28.1 WNW 19 23 - - 27.4 - - - - - - -
24/03:30am 28.2 NW 20 24 - - 27.4 - - - - - - -
24/03:00am 28.1 NW 21 26 - - 27.4 - - - - - - -
24/02:30am 28.1 WNW 23 27 - - 27.4 - - - - - - -
24/02:00am 28.2 WNW 21 25 - - 27.4 - - - - - - -
24/01:30am 28.2 WNW 19 22 - - 27.4 - - - - - - -
24/01:00am 27.9 NW 19 23 - - 27.4 - - - - - - -
24/12:30am 27.9 WNW 17 20 - - 27.4 - - - - - - -
24/12:00am 28.0 WNW 16 19 - - 27.4 - - - - - - -
 
Date/Time
CST
Temp

°C
Wind Pressure Rain
since 9am
mm
Weather Cloud Vis
km
Sea
Height
m
Swell
Dir
 
Speed
knots
Gust
knots
hPa Trend Height
m
Period
s
Dir
23/11:30pm 27.8 WNW 18 22 - - 27.4 - - - - - - -
23/11:00pm 27.6 NW 20 24 - - 27.4 - - - - - - -
23/10:30pm 27.7 NW 21 25 - - 27.4 - - - - - - -
23/10:00pm 27.8 NW 19 22 - - 27.4 - - - - - - -
23/09:30pm 27.9 NW 19 23 - - 27.4 - - - - - - -
23/09:00pm 27.9 WNW 18 21 - - 27.4 - - - - - - -
23/08:30pm 27.5 NW 21 26 - - 27.4 - - - - - - -
23/08:00pm 27.4 WNW 23 27 - - 27.4 - - - - - - -
23/07:30pm 27.4 NW 17 21 - - 27.4 - - - - - - -
23/07:00pm 27.0 NNW 13 15 - - 27.4 - - - - - - -
23/06:30pm 27.0 NNW 16 19 - - 27.4 - - - - - - -
23/06:00pm 27.4 NW 18 21 - - 27.4 - - - - - - -
23/05:30pm 27.5 NW 18 23 - - 27.4 - - - - - - -
23/05:00pm 27.4 NW 17 19 - - 27.4 - - - - - - -
23/04:30pm 27.1 NW 15 18 - - 27.4 - - - - - - -
23/04:00pm 27.0 WNW 15 18 - - 27.4 - - - - - - -
23/03:30pm 27.1 WNW 11 14 - - 27.0 - - - - - - -
23/03:00pm 26.2 WNW 13 16 - - 26.8 Rain - - - - - -
23/02:30pm 26.0 WNW 6 8 - - 26.2 - - - - - - -
23/02:00pm 25.7 WNW 11 13 - - 25.0 - - - - - - -
23/01:30pm 26.0 WNW 16 19 - - 23.6 - - - - - - -
23/01:00pm 25.9 WNW 24 30 - - 22.6 - - - - - - -
23/12:30pm 25.9 WNW 20 24 - - 21.6 - - - - - - -
23/12:00pm 26.4 WNW 19 24 - - 19.6 Recent precip. - - - - - -
23/11:30am 25.8 W 17 21 - - 19.2 - - - - - - -
23/11:26am 26.3 W 18 21 - - 19.2 - - - - - - -
23/11:00am 25.7 WSW 26 33 - - 19.2 - - - - - - -
23/10:52am 26.3 WSW 25 33 - - 19.2 - - - - - - -
23/10:39am 27.2 WNW 20 34 - - 18.8 - - - - - - -
23/10:30am 27.8 WNW 18 23 - - 18.6 - - - - - - -
23/10:00am 25.8 WNW 18 26 - - 17.2 - - - - - - -
23/09:59am 25.9 WNW 18 26 - - 17.2 - - - - - - -
23/09:48am 25.2 WNW 24 37 - - 12.4 - - - - - - -
23/09:46am 25.7 WNW 22 37 - - 9.0 - - - - - - -
23/09:45am 25.9 W 19 37 - - 8.6 - - - - - - -
23/09:43am 25.7 W 16 27 - - 7.0 - - - - - - -
23/09:30am 25.8 W 16 21 - - 4.6 - - - - - - -
23/09:15am 27.0 WNW 15 25 - - 0.6 - - - - - - -
23/09:00am 27.3 WNW 13 17 - - 60.2 Recent precip. - - - - - -
23/08:30am 26.6 WSW 19 24 - - 60.2 - - - - - - -
23/08:00am 26.6 WNW 21 27 - - 58.2 - - - - - - -
23/07:30am 26.9 NW 23 28 - - 54.6 - - - - - - -
23/07:02am 26.7 WNW 15 26 - - 51.0 - - - - - - -
23/07:00am 27.5 WNW 13 20 - - 50.8 - - - - - - -
23/06:30am 26.2 NNW 19 24 - - 50.2 - - - - - - -
23/06:00am 26.0 NW 23 28 - - 50.0 Rain - - - - - -
23/05:30am 26.1 WNW 26 31 - - 49.0 - - - - - - -
23/05:00am 25.6 NW 27 38 - - 45.8 - - - - - - -
23/04:39am 24.5 WNW 27 36 - - 39.6 - - - - - - -
23/04:33am 25.8 WNW 24 34 - - 36.0 - - - - - - -
23/04:30am 26.5 WNW 20 34 - - 32.4 - - - - - - -
23/04:00am 25.6 WNW 24 34 - - 21.2 - - - - - - -
23/03:53am 26.1 W 22 33 - - 15.6 - - - - - - -
23/03:50am 26.7 WSW 19 29 - - 12.2 - - - - - - -
23/03:30am 26.8 WSW 18 30 - - 2.6 - - - - - - -
23/03:26am 26.9 W 16 30 - - 0.6 - - - - - - -
23/03:00am 28.8 WNW 19 24 - - 0.2 Rain - - - - - -
23/02:30am 29.1 WNW 19 23 - - 0.0 - - - - - - -
23/02:00am 29.0 WNW 20 23 - - 0.0 - - - - - - -
23/01:30am 28.6 NW 21 27 - - 0.0 - - - - - - -
23/01:00am 29.4 WNW 20 24 - - 0.0 - - - - - - -
23/12:30am 29.3 WNW 23 28 - - 0.0 - - - - - - -
23/12:00am 29.4 W 22 27 - - 0.0 - - - - - - -
 
Date/Time
CST
Temp

°C
Wind Pressure Rain
since 9am
mm
Weather Cloud Vis
km
Sea
Height
m
Swell
Dir
 
Speed
knots
Gust
knots
hPa Trend Height
m
Period
s
Dir
22/11:30pm 29.1 W 19 24 - - 0.0 - - - - - - -
22/11:00pm 28.8 WNW 20 26 - - 0.0 - - - - - - -
22/10:30pm 28.8 W 19 25 - - 0.0 - - - - - - -
22/10:00pm 29.2 W 22 27 - - 0.0 - - - - - - -
22/09:30pm 28.5 W 19 22 - - 0.0 - - - - - - -
22/09:00pm 28.4 WNW 26 31 - - 0.0 - - - - - - -
22/08:30pm 29.6 WNW 25 31 - - 0.0 - - - - - - -
22/08:00pm 29.7 WNW 27 32 - - 0.0 - - - - - - -
22/07:30pm 29.0 WNW 23 29 - - 0.0 - - - - - - -
22/07:00pm 29.0 W 22 28 - - 0.0 - - - - - - -
22/06:30pm 29.3 WNW 21 26 - - 0.0 - - - - - - -
22/06:00pm 29.1 WNW 23 29 - - 0.0 - - - - - - -
22/05:30pm 29.9 NW 22 26 - - 0.0 - - - - - - -
22/05:00pm 29.7 NW 24 29 - - 0.0 - - - - - - -
22/04:30pm 29.8 NW 24 29 - - 0.0 - - - - - - -
22/04:00pm 29.6 NW 25 32 - - 0.0 - - - - - - -
22/03:30pm 30.2 NW 24 28 - - 0.0 - - - - - - -
22/03:00pm 30.8 NW 25 29 - - 0.0 - - - - - - -
22/02:30pm 30.0 NW 24 31 - - 0.0 - - - - - - -
22/02:00pm 30.2 NW 23 28 - - 0.0 - - - - - - -
22/01:30pm 30.7 NW 21 26 - - 0.0 - - - - - - -

Other Formats:

Comma delimited format used in spreadsheet applications
http://www.bom.gov.au/fwo/IDD60701/IDD60701.95146.axf

JavaScript Object Notation format (JSON) in row-major order
http://www.bom.gov.au/fwo/IDD60701/IDD60701.95146.json